Seymour Johnson AFB, North Carolina
Current Conditions -  °F | °C
As of 9:58 PM on Thursday 27 Nov 2014 (Local Time) from KGSB Reporting Station
Clear Clear  
Wind Chill: 35°   Ceiling: Unl
Heat Index: 41°   Visibility: 10mi
Dew Point: 35°   Wind: 8mph
Humidity: 79%   Direction: 320°NW
Pressure: 30.21"   Gusts: NA
Location:  35.3407°N, 77.9695°W
Report Text: KGSB 280258Z AUTO 32007KT 10SM CLR 05/02 A3021 RMK AO2 SLP234 T00480015 52021 $
Loading
Personal Weather Stations






























Interactive Weather Map New forecast layout! Learn more

10-Day Weather Forecast

Advertisements
Track Severe Weather on mobile